sensor_id;sensor_type;location;lat;lon;timestamp;P1;durP1;ratioP1;P2;durP2;ratioP2
14923;SDS011;7554;43.600;1.480;2022-08-26T00:00:56;3.80;;;1.50;;
14923;SDS011;7554;43.600;1.480;2022-08-26T00:03:25;5.27;;;1.73;;
14923;SDS011;7554;43.600;1.480;2022-08-26T00:05:52;9.80;;;2.00;;
14923;SDS011;7554;43.600;1.480;2022-08-26T00:08:19;6.37;;;1.70;;
14923;SDS011;7554;43.600;1.480;2022-08-26T00:10:48;5.97;;;1.90;;
14923;SDS011;7554;43.600;1.480;2022-08-26T00:13:15;4.43;;;1.70;;
14923;SDS011;7554;43.600;1.480;2022-08-26T00:15:43;4.53;;;1.70;;
14923;SDS011;7554;43.600;1.480;2022-08-26T00:18:12;6.83;;;2.30;;
14923;SDS011;7554;43.600;1.480;2022-08-26T00:20:41;5.20;;;1.43;;
14923;SDS011;7554;43.600;1.480;2022-08-26T00:23:08;3.63;;;1.63;;
14923;SDS011;7554;43.600;1.480;2022-08-26T00:25:36;6.13;;;1.77;;
14923;SDS011;7554;43.600;1.480;2022-08-26T00:28:04;6.43;;;2.27;;
14923;SDS011;7554;43.600;1.480;2022-08-26T00:30:32;5.47;;;1.70;;
14923;SDS011;7554;43.600;1.480;2022-08-26T00:33:00;5.13;;;1.87;;
14923;SDS011;7554;43.600;1.480;2022-08-26T00:35:29;6.97;;;1.80;;
14923;SDS011;7554;43.600;1.480;2022-08-26T00:37:58;5.43;;;1.70;;
14923;SDS011;7554;43.600;1.480;2022-08-26T00:40:26;6.97;;;1.73;;
14923;SDS011;7554;43.600;1.480;2022-08-26T00:42:56;8.70;;;1.77;;
14923;SDS011;7554;43.600;1.480;2022-08-26T00:45:24;4.83;;;1.40;;
14923;SDS011;7554;43.600;1.480;2022-08-26T00:47:52;5.17;;;1.80;;
14923;SDS011;7554;43.600;1.480;2022-08-26T00:50:24;7.50;;;2.07;;
14923;SDS011;7554;43.600;1.480;2022-08-26T00:52:54;5.60;;;2.07;;
14923;SDS011;7554;43.600;1.480;2022-08-26T00:55:27;8.63;;;1.83;;
14923;SDS011;7554;43.600;1.480;2022-08-26T00:57:58;5.27;;;1.60;;
14923;SDS011;7554;43.600;1.480;2022-08-26T01:00:27;5.57;;;1.53;;
14923;SDS011;7554;43.600;1.480;2022-08-26T01:02:56;5.90;;;1.83;;
14923;SDS011;7554;43.600;1.480;2022-08-26T01:05:26;4.50;;;1.93;;
14923;SDS011;7554;43.600;1.480;2022-08-26T01:07:54;6.33;;;1.70;;
14923;SDS011;7554;43.600;1.480;2022-08-26T01:10:23;5.90;;;1.67;;
14923;SDS011;7554;43.600;1.480;2022-08-26T01:12:54;3.80;;;1.67;;
14923;SDS011;7554;43.600;1.480;2022-08-26T01:15:28;5.03;;;1.40;;
14923;SDS011;7554;43.600;1.480;2022-08-26T01:17:57;3.50;;;1.37;;
14923;SDS011;7554;43.600;1.480;2022-08-26T01:20:27;6.00;;;1.77;;
14923;SDS011;7554;43.600;1.480;2022-08-26T01:23:03;4.53;;;1.60;;
14923;SDS011;7554;43.600;1.480;2022-08-26T01:25:32;4.87;;;1.70;;
14923;SDS011;7554;43.600;1.480;2022-08-26T01:28:05;5.70;;;1.77;;
14923;SDS011;7554;43.600;1.480;2022-08-26T01:30:35;4.43;;;1.50;;
14923;SDS011;7554;43.600;1.480;2022-08-26T01:33:08;5.80;;;1.60;;
14923;SDS011;7554;43.600;1.480;2022-08-26T01:35:38;4.90;;;1.80;;
14923;SDS011;7554;43.600;1.480;2022-08-26T01:38:08;5.60;;;1.60;;
14923;SDS011;7554;43.600;1.480;2022-08-26T01:40:37;7.27;;;1.70;;
14923;SDS011;7554;43.600;1.480;2022-08-26T01:43:08;4.50;;;1.30;;
14923;SDS011;7554;43.600;1.480;2022-08-26T01:45:41;8.20;;;1.73;;
14923;SDS011;7554;43.600;1.480;2022-08-26T01:48:09;4.83;;;1.63;;
14923;SDS011;7554;43.600;1.480;2022-08-26T01:50:40;8.87;;;1.40;;
14923;SDS011;7554;43.600;1.480;2022-08-26T01:53:10;6.27;;;1.80;;
14923;SDS011;7554;43.600;1.480;2022-08-26T01:55:40;4.13;;;1.60;;
14923;SDS011;7554;43.600;1.480;2022-08-26T01:58:12;5.53;;;1.50;;
14923;SDS011;7554;43.600;1.480;2022-08-26T02:00:44;3.87;;;1.60;;
14923;SDS011;7554;43.600;1.480;2022-08-26T02:03:12;3.30;;;1.40;;
14923;SDS011;7554;43.600;1.480;2022-08-26T02:05:42;4.93;;;1.40;;
14923;SDS011;7554;43.600;1.480;2022-08-26T02:08:12;4.00;;;1.47;;
14923;SDS011;7554;43.600;1.480;2022-08-26T02:10:40;5.47;;;1.73;;
14923;SDS011;7554;43.600;1.480;2022-08-26T02:13:08;5.37;;;1.53;;
14923;SDS011;7554;43.600;1.480;2022-08-26T02:15:36;5.30;;;1.83;;
14923;SDS011;7554;43.600;1.480;2022-08-26T02:18:08;5.57;;;1.67;;
14923;SDS011;7554;43.600;1.480;2022-08-26T02:20:37;4.07;;;1.43;;
14923;SDS011;7554;43.600;1.480;2022-08-26T02:23:04;3.80;;;1.60;;
14923;SDS011;7554;43.600;1.480;2022-08-26T02:25:40;10.07;;;1.93;;
14923;SDS011;7554;43.600;1.480;2022-08-26T02:28:13;7.80;;;1.70;;
14923;SDS011;7554;43.600;1.480;2022-08-26T02:30:42;4.53;;;1.40;;
14923;SDS011;7554;43.600;1.480;2022-08-26T02:33:11;5.97;;;1.70;;
14923;SDS011;7554;43.600;1.480;2022-08-26T02:35:39;5.80;;;1.73;;
14923;SDS011;7554;43.600;1.480;2022-08-26T02:38:06;5.73;;;1.60;;
14923;SDS011;7554;43.600;1.480;2022-08-26T02:40:37;4.17;;;1.50;;
14923;SDS011;7554;43.600;1.480;2022-08-26T02:43:07;6.07;;;2.00;;
14923;SDS011;7554;43.600;1.480;2022-08-26T02:45:36;6.33;;;1.83;;
14923;SDS011;7554;43.600;1.480;2022-08-26T02:48:06;3.97;;;1.60;;
14923;SDS011;7554;43.600;1.480;2022-08-26T02:50:36;7.20;;;1.90;;
14923;SDS011;7554;43.600;1.480;2022-08-26T02:53:04;4.80;;;1.40;;
14923;SDS011;7554;43.600;1.480;2022-08-26T02:55:32;4.97;;;1.63;;
14923;SDS011;7554;43.600;1.480;2022-08-26T02:58:02;6.80;;;2.00;;
14923;SDS011;7554;43.600;1.480;2022-08-26T03:00:29;5.43;;;1.40;;
14923;SDS011;7554;43.600;1.480;2022-08-26T03:02:57;7.17;;;1.53;;
14923;SDS011;7554;43.600;1.480;2022-08-26T03:05:25;4.43;;;1.87;;
14923;SDS011;7554;43.600;1.480;2022-08-26T03:07:52;5.83;;;1.77;;
14923;SDS011;7554;43.600;1.480;2022-08-26T03:10:19;4.77;;;1.37;;
14923;SDS011;7554;43.600;1.480;2022-08-26T03:12:47;7.00;;;1.80;;
14923;SDS011;7554;43.600;1.480;2022-08-26T03:15:16;4.80;;;1.50;;
14923;SDS011;7554;43.600;1.480;2022-08-26T03:17:45;7.00;;;1.67;;
14923;SDS011;7554;43.600;1.480;2022-08-26T03:20:13;3.37;;;1.50;;
14923;SDS011;7554;43.600;1.480;2022-08-26T03:22:41;6.33;;;1.70;;
14923;SDS011;7554;43.600;1.480;2022-08-26T03:25:09;5.40;;;2.10;;
14923;SDS011;7554;43.600;1.480;2022-08-26T03:27:38;4.50;;;1.77;;
14923;SDS011;7554;43.600;1.480;2022-08-26T03:30:07;4.77;;;1.60;;
14923;SDS011;7554;43.600;1.480;2022-08-26T03:32:54;3.00;;;1.33;;
14923;SDS011;7554;43.600;1.480;2022-08-26T03:35:22;5.53;;;1.63;;
14923;SDS011;7554;43.600;1.480;2022-08-26T03:37:50;4.83;;;1.83;;
14923;SDS011;7554;43.600;1.480;2022-08-26T03:40:18;4.17;;;1.67;;
14923;SDS011;7554;43.600;1.480;2022-08-26T03:42:46;7.20;;;1.83;;
14923;SDS011;7554;43.600;1.480;2022-08-26T03:45:14;7.80;;;1.77;;
14923;SDS011;7554;43.600;1.480;2022-08-26T03:47:42;6.67;;;1.53;;
14923;SDS011;7554;43.600;1.480;2022-08-26T03:50:12;3.57;;;1.33;;
14923;SDS011;7554;43.600;1.480;2022-08-26T03:52:41;4.17;;;1.70;;
14923;SDS011;7554;43.600;1.480;2022-08-26T03:55:11;5.87;;;1.87;;
14923;SDS011;7554;43.600;1.480;2022-08-26T03:57:39;3.53;;;1.70;;
14923;SDS011;7554;43.600;1.480;2022-08-26T04:00:08;5.43;;;1.77;;
14923;SDS011;7554;43.600;1.480;2022-08-26T04:02:39;4.47;;;1.80;;
14923;SDS011;7554;43.600;1.480;2022-08-26T04:05:08;5.63;;;2.00;;
14923;SDS011;7554;43.600;1.480;2022-08-26T04:07:37;5.67;;;1.80;;
14923;SDS011;7554;43.600;1.480;2022-08-26T04:10:05;3.70;;;1.70;;
14923;SDS011;7554;43.600;1.480;2022-08-26T04:12:32;6.43;;;2.00;;
14923;SDS011;7554;43.600;1.480;2022-08-26T04:15:02;5.77;;;2.40;;
14923;SDS011;7554;43.600;1.480;2022-08-26T04:17:30;7.37;;;2.60;;
14923;SDS011;7554;43.600;1.480;2022-08-26T04:19:58;6.37;;;2.17;;
14923;SDS011;7554;43.600;1.480;2022-08-26T04:22:25;4.80;;;1.90;;
14923;SDS011;7554;43.600;1.480;2022-08-26T04:24:54;4.30;;;1.80;;
14923;SDS011;7554;43.600;1.480;2022-08-26T04:27:21;5.67;;;1.80;;
14923;SDS011;7554;43.600;1.480;2022-08-26T04:29:49;5.70;;;2.30;;
14923;SDS011;7554;43.600;1.480;2022-08-26T04:32:16;9.10;;;2.20;;
14923;SDS011;7554;43.600;1.480;2022-08-26T04:34:44;4.60;;;2.20;;
14923;SDS011;7554;43.600;1.480;2022-08-26T04:37:11;3.33;;;1.80;;
14923;SDS011;7554;43.600;1.480;2022-08-26T04:39:39;6.80;;;2.27;;
14923;SDS011;7554;43.600;1.480;2022-08-26T04:42:07;3.47;;;1.80;;
14923;SDS011;7554;43.600;1.480;2022-08-26T04:44:35;7.00;;;2.40;;
14923;SDS011;7554;43.600;1.480;2022-08-26T04:47:03;7.87;;;2.57;;
14923;SDS011;7554;43.600;1.480;2022-08-26T04:49:30;5.53;;;2.70;;
14923;SDS011;7554;43.600;1.480;2022-08-26T04:51:58;7.07;;;2.93;;
14923;SDS011;7554;43.600;1.480;2022-08-26T04:54:25;6.50;;;2.70;;
14923;SDS011;7554;43.600;1.480;2022-08-26T04:56:52;5.60;;;2.80;;
14923;SDS011;7554;43.600;1.480;2022-08-26T04:59:21;4.47;;;2.40;;
14923;SDS011;7554;43.600;1.480;2022-08-26T05:01:49;5.20;;;2.53;;
14923;SDS011;7554;43.600;1.480;2022-08-26T05:04:20;6.00;;;2.50;;
14923;SDS011;7554;43.600;1.480;2022-08-26T05:06:47;5.03;;;2.47;;
14923;SDS011;7554;43.600;1.480;2022-08-26T05:09:15;4.33;;;2.30;;
14923;SDS011;7554;43.600;1.480;2022-08-26T05:11:43;4.00;;;2.27;;
14923;SDS011;7554;43.600;1.480;2022-08-26T05:14:11;4.87;;;2.73;;
14923;SDS011;7554;43.600;1.480;2022-08-26T05:16:40;6.10;;;2.53;;
14923;SDS011;7554;43.600;1.480;2022-08-26T05:19:07;5.20;;;2.60;;
14923;SDS011;7554;43.600;1.480;2022-08-26T05:21:35;4.17;;;2.37;;
14923;SDS011;7554;43.600;1.480;2022-08-26T05:24:04;4.77;;;2.13;;
14923;SDS011;7554;43.600;1.480;2022-08-26T05:26:31;4.40;;;2.20;;
14923;SDS011;7554;43.600;1.480;2022-08-26T05:28:59;7.40;;;2.47;;
14923;SDS011;7554;43.600;1.480;2022-08-26T05:31:27;6.33;;;2.40;;
14923;SDS011;7554;43.600;1.480;2022-08-26T05:33:58;5.40;;;2.60;;
14923;SDS011;7554;43.600;1.480;2022-08-26T05:36:27;5.03;;;2.57;;
14923;SDS011;7554;43.600;1.480;2022-08-26T05:38:55;5.77;;;2.60;;
14923;SDS011;7554;43.600;1.480;2022-08-26T05:41:23;7.83;;;2.57;;
14923;SDS011;7554;43.600;1.480;2022-08-26T05:43:54;4.37;;;2.47;;
14923;SDS011;7554;43.600;1.480;2022-08-26T05:46:23;7.07;;;2.43;;
14923;SDS011;7554;43.600;1.480;2022-08-26T05:48:51;5.67;;;2.60;;
14923;SDS011;7554;43.600;1.480;2022-08-26T05:51:20;4.93;;;2.67;;
14923;SDS011;7554;43.600;1.480;2022-08-26T05:53:47;3.53;;;2.50;;
14923;SDS011;7554;43.600;1.480;2022-08-26T05:56:15;3.83;;;2.53;;
14923;SDS011;7554;43.600;1.480;2022-08-26T05:58:44;7.10;;;2.47;;
14923;SDS011;7554;43.600;1.480;2022-08-26T06:01:13;4.53;;;2.53;;
14923;SDS011;7554;43.600;1.480;2022-08-26T06:03:42;5.57;;;2.80;;
14923;SDS011;7554;43.600;1.480;2022-08-26T06:06:12;8.43;;;3.00;;
14923;SDS011;7554;43.600;1.480;2022-08-26T06:08:43;7.60;;;3.13;;
14923;SDS011;7554;43.600;1.480;2022-08-26T06:11:11;9.63;;;3.40;;
14923;SDS011;7554;43.600;1.480;2022-08-26T06:13:40;7.07;;;2.80;;
14923;SDS011;7554;43.600;1.480;2022-08-26T06:16:08;5.87;;;2.70;;
14923;SDS011;7554;43.600;1.480;2022-08-26T06:18:39;6.37;;;3.00;;
14923;SDS011;7554;43.600;1.480;2022-08-26T06:21:11;5.13;;;2.80;;
14923;SDS011;7554;43.600;1.480;2022-08-26T06:23:43;8.60;;;3.10;;
14923;SDS011;7554;43.600;1.480;2022-08-26T06:26:28;4.13;;;2.77;;
14923;SDS011;7554;43.600;1.480;2022-08-26T06:28:57;7.03;;;2.93;;
14923;SDS011;7554;43.600;1.480;2022-08-26T06:31:25;7.07;;;3.10;;
14923;SDS011;7554;43.600;1.480;2022-08-26T06:33:52;7.87;;;3.07;;
14923;SDS011;7554;43.600;1.480;2022-08-26T06:36:21;9.20;;;3.07;;
14923;SDS011;7554;43.600;1.480;2022-08-26T06:38:52;12.07;;;3.27;;
14923;SDS011;7554;43.600;1.480;2022-08-26T06:41:21;5.07;;;2.93;;
14923;SDS011;7554;43.600;1.480;2022-08-26T06:43:49;6.67;;;2.93;;
14923;SDS011;7554;43.600;1.480;2022-08-26T06:46:18;5.23;;;2.50;;
14923;SDS011;7554;43.600;1.480;2022-08-26T06:48:47;8.40;;;2.70;;
14923;SDS011;7554;43.600;1.480;2022-08-26T06:51:17;6.10;;;2.90;;
14923;SDS011;7554;43.600;1.480;2022-08-26T06:53:47;6.67;;;2.47;;
14923;SDS011;7554;43.600;1.480;2022-08-26T06:56:18;4.00;;;2.60;;
14923;SDS011;7554;43.600;1.480;2022-08-26T06:58:46;7.30;;;2.80;;
14923;SDS011;7554;43.600;1.480;2022-08-26T07:01:15;3.50;;;2.67;;
14923;SDS011;7554;43.600;1.480;2022-08-26T07:03:44;4.23;;;2.50;;
14923;SDS011;7554;43.600;1.480;2022-08-26T07:06:12;4.43;;;2.50;;
14923;SDS011;7554;43.600;1.480;2022-08-26T07:08:39;3.27;;;2.40;;
14923;SDS011;7554;43.600;1.480;2022-08-26T07:11:07;5.07;;;2.47;;
14923;SDS011;7554;43.600;1.480;2022-08-26T07:13:37;4.43;;;2.60;;
14923;SDS011;7554;43.600;1.480;2022-08-26T07:16:06;5.17;;;2.60;;
14923;SDS011;7554;43.600;1.480;2022-08-26T07:18:36;5.67;;;2.77;;
14923;SDS011;7554;43.600;1.480;2022-08-26T07:21:05;5.77;;;2.77;;
14923;SDS011;7554;43.600;1.480;2022-08-26T07:23:34;4.60;;;2.47;;
14923;SDS011;7554;43.600;1.480;2022-08-26T07:26:03;7.10;;;2.50;;
14923;SDS011;7554;43.600;1.480;2022-08-26T07:28:30;4.77;;;2.47;;
14923;SDS011;7554;43.600;1.480;2022-08-26T07:30:59;7.90;;;2.77;;
14923;SDS011;7554;43.600;1.480;2022-08-26T07:33:29;5.83;;;2.33;;
14923;SDS011;7554;43.600;1.480;2022-08-26T07:35:57;7.97;;;2.67;;
14923;SDS011;7554;43.600;1.480;2022-08-26T07:38:26;3.77;;;2.20;;
14923;SDS011;7554;43.600;1.480;2022-08-26T07:40:54;7.67;;;2.47;;
14923;SDS011;7554;43.600;1.480;2022-08-26T07:43:21;4.83;;;2.50;;
14923;SDS011;7554;43.600;1.480;2022-08-26T07:45:50;4.93;;;2.40;;
14923;SDS011;7554;43.600;1.480;2022-08-26T07:48:19;3.47;;;2.30;;
14923;SDS011;7554;43.600;1.480;2022-08-26T07:50:46;5.70;;;2.37;;
14923;SDS011;7554;43.600;1.480;2022-08-26T07:53:14;7.63;;;2.50;;
14923;SDS011;7554;43.600;1.480;2022-08-26T07:55:41;4.53;;;2.20;;
14923;SDS011;7554;43.600;1.480;2022-08-26T07:58:09;3.73;;;2.40;;
14923;SDS011;7554;43.600;1.480;2022-08-26T08:00:36;4.30;;;2.30;;
14923;SDS011;7554;43.600;1.480;2022-08-26T08:03:03;6.63;;;2.27;;
14923;SDS011;7554;43.600;1.480;2022-08-26T08:05:36;5.40;;;2.30;;
14923;SDS011;7554;43.600;1.480;2022-08-26T08:08:04;5.20;;;2.47;;
14923;SDS011;7554;43.600;1.480;2022-08-26T08:10:34;2.97;;;1.93;;
14923;SDS011;7554;43.600;1.480;2022-08-26T08:13:02;3.30;;;2.17;;
14923;SDS011;7554;43.600;1.480;2022-08-26T08:15:31;3.30;;;2.10;;
14923;SDS011;7554;43.600;1.480;2022-08-26T08:17:59;4.40;;;2.17;;
14923;SDS011;7554;43.600;1.480;2022-08-26T08:20:27;4.63;;;2.17;;
14923;SDS011;7554;43.600;1.480;2022-08-26T08:22:56;3.53;;;2.17;;
14923;SDS011;7554;43.600;1.480;2022-08-26T08:25:24;3.43;;;1.80;;
14923;SDS011;7554;43.600;1.480;2022-08-26T08:27:51;3.13;;;1.93;;
14923;SDS011;7554;43.600;1.480;2022-08-26T08:30:19;3.67;;;1.80;;
14923;SDS011;7554;43.600;1.480;2022-08-26T08:32:47;6.80;;;2.20;;
14923;SDS011;7554;43.600;1.480;2022-08-26T08:35:15;5.83;;;2.33;;
14923;SDS011;7554;43.600;1.480;2022-08-26T08:37:45;3.17;;;2.03;;
14923;SDS011;7554;43.600;1.480;2022-08-26T08:40:16;4.47;;;2.10;;
14923;SDS011;7554;43.600;1.480;2022-08-26T08:42:44;3.90;;;2.03;;
14923;SDS011;7554;43.600;1.480;2022-08-26T08:45:15;2.53;;;1.87;;
14923;SDS011;7554;43.600;1.480;2022-08-26T08:47:48;3.50;;;1.87;;
14923;SDS011;7554;43.600;1.480;2022-08-26T08:50:19;4.93;;;2.00;;
14923;SDS011;7554;43.600;1.480;2022-08-26T08:52:54;6.27;;;1.97;;
14923;SDS011;7554;43.600;1.480;2022-08-26T08:55:30;4.77;;;1.90;;
14923;SDS011;7554;43.600;1.480;2022-08-26T08:58:07;2.50;;;1.93;;
14923;SDS011;7554;43.600;1.480;2022-08-26T09:00:41;3.33;;;2.00;;
14923;SDS011;7554;43.600;1.480;2022-08-26T09:03:17;4.43;;;2.13;;
14923;SDS011;7554;43.600;1.480;2022-08-26T09:05:55;4.73;;;2.37;;
14923;SDS011;7554;43.600;1.480;2022-08-26T09:08:24;4.43;;;2.00;;
14923;SDS011;7554;43.600;1.480;2022-08-26T09:10:57;2.47;;;1.90;;
14923;SDS011;7554;43.600;1.480;2022-08-26T09:13:26;3.60;;;1.98;;
14923;SDS011;7554;43.600;1.480;2022-08-26T09:15:56;6.55;;;2.05;;
14923;SDS011;7554;43.600;1.480;2022-08-26T09:18:34;3.67;;;1.90;;
14923;SDS011;7554;43.600;1.480;2022-08-26T09:21:14;4.63;;;2.00;;
14923;SDS011;7554;43.600;1.480;2022-08-26T09:23:43;2.40;;;1.93;;
14923;SDS011;7554;43.600;1.480;2022-08-26T09:26:20;5.93;;;1.97;;
14923;SDS011;7554;43.600;1.480;2022-08-26T09:28:54;6.53;;;2.38;;
14923;SDS011;7554;43.600;1.480;2022-08-26T09:31:23;2.30;;;1.52;;
14923;SDS011;7554;43.600;1.480;2022-08-26T09:34:03;4.10;;;2.15;;
14923;SDS011;7554;43.600;1.480;2022-08-26T09:36:34;2.40;;;1.45;;
14923;SDS011;7554;43.600;1.480;2022-08-26T09:39:03;2.97;;;1.73;;
14923;SDS011;7554;43.600;1.480;2022-08-26T09:41:32;4.95;;;1.58;;
14923;SDS011;7554;43.600;1.480;2022-08-26T09:44:11;2.72;;;1.65;;
14923;SDS011;7554;43.600;1.480;2022-08-26T09:46:43;3.38;;;1.90;;
14923;SDS011;7554;43.600;1.480;2022-08-26T09:49:25;7.43;;;1.80;;
14923;SDS011;7554;43.600;1.480;2022-08-26T09:52:09;3.30;;;1.60;;
14923;SDS011;7554;43.600;1.480;2022-08-26T09:54:43;8.05;;;1.90;;
14923;SDS011;7554;43.600;1.480;2022-08-26T09:57:26;2.60;;;1.40;;
14923;SDS011;7554;43.600;1.480;2022-08-26T09:59:54;2.10;;;1.40;;
14923;SDS011;7554;43.600;1.480;2022-08-26T10:02:28;3.85;;;1.70;;
14923;SDS011;7554;43.600;1.480;2022-08-26T10:05:04;5.47;;;1.80;;
14923;SDS011;7554;43.600;1.480;2022-08-26T10:07:38;4.53;;;1.65;;
14923;SDS011;7554;43.600;1.480;2022-08-26T10:10:10;3.85;;;1.73;;
14923;SDS011;7554;43.600;1.480;2022-08-26T10:15:42;3.13;;;1.80;;
14923;SDS011;7554;43.600;1.480;2022-08-26T10:18:14;4.75;;;1.70;;
14923;SDS011;7554;43.600;1.480;2022-08-26T10:20:50;2.78;;;1.50;;
14923;SDS011;7554;43.600;1.480;2022-08-26T10:23:24;2.95;;;1.30;;
14923;SDS011;7554;43.600;1.480;2022-08-26T10:25:54;6.35;;;1.90;;
14923;SDS011;7554;43.600;1.480;2022-08-26T10:28:29;6.05;;;1.48;;
14923;SDS011;7554;43.600;1.480;2022-08-26T10:31:02;4.85;;;1.77;;
14923;SDS011;7554;43.600;1.480;2022-08-26T10:33:36;2.00;;;1.35;;
14923;SDS011;7554;43.600;1.480;2022-08-26T10:36:05;3.22;;;1.60;;
14923;SDS011;7554;43.600;1.480;2022-08-26T10:38:58;5.22;;;1.85;;
14923;SDS011;7554;43.600;1.480;2022-08-26T10:41:27;4.60;;;1.70;;
14923;SDS011;7554;43.600;1.480;2022-08-26T10:44:01;2.50;;;1.33;;
14923;SDS011;7554;43.600;1.480;2022-08-26T10:46:33;2.38;;;1.50;;
14923;SDS011;7554;43.600;1.480;2022-08-26T10:49:05;4.30;;;1.65;;
14923;SDS011;7554;43.600;1.480;2022-08-26T10:51:34;3.75;;;1.63;;
14923;SDS011;7554;43.600;1.480;2022-08-26T10:54:07;3.35;;;1.92;;
14923;SDS011;7554;43.600;1.480;2022-08-26T10:56:41;4.30;;;1.30;;
14923;SDS011;7554;43.600;1.480;2022-08-26T10:59:19;2.17;;;1.25;;
14923;SDS011;7554;43.600;1.480;2022-08-26T11:01:58;1.95;;;1.50;;
14923;SDS011;7554;43.600;1.480;2022-08-26T11:04:41;2.75;;;1.65;;
14923;SDS011;7554;43.600;1.480;2022-08-26T11:07:29;3.85;;;1.30;;
14923;SDS011;7554;43.600;1.480;2022-08-26T11:10:04;3.58;;;1.30;;
14923;SDS011;7554;43.600;1.480;2022-08-26T11:12:47;1.90;;;1.27;;
14923;SDS011;7554;43.600;1.480;2022-08-26T11:18:38;1.88;;;1.15;;
14923;SDS011;7554;43.600;1.480;2022-08-26T11:24:43;2.67;;;1.08;;
14923;SDS011;7554;43.600;1.480;2022-08-26T11:30:33;2.75;;;1.40;;
14923;SDS011;7554;43.600;1.480;2022-08-26T11:33:09;4.32;;;1.80;;
14923;SDS011;7554;43.600;1.480;2022-08-26T11:35:58;4.18;;;1.60;;
14923;SDS011;7554;43.600;1.480;2022-08-26T11:38:26;2.70;;;1.30;;
14923;SDS011;7554;43.600;1.480;2022-08-26T11:40:56;2.85;;;1.20;;
14923;SDS011;7554;43.600;1.480;2022-08-26T11:43:41;2.05;;;1.20;;
14923;SDS011;7554;43.600;1.480;2022-08-26T11:46:11;3.17;;;1.08;;
14923;SDS011;7554;43.600;1.480;2022-08-26T11:48:48;2.00;;;1.10;;
14923;SDS011;7554;43.600;1.480;2022-08-26T11:51:21;3.20;;;1.13;;
14923;SDS011;7554;43.600;1.480;2022-08-26T11:53:50;2.22;;;1.05;;
14923;SDS011;7554;43.600;1.480;2022-08-26T11:56:33;3.90;;;0.90;;
14923;SDS011;7554;43.600;1.480;2022-08-26T11:59:03;2.63;;;1.00;;
14923;SDS011;7554;43.600;1.480;2022-08-26T12:01:35;2.33;;;1.20;;
14923;SDS011;7554;43.600;1.480;2022-08-26T12:04:04;1.35;;;0.90;;
14923;SDS011;7554;43.600;1.480;2022-08-26T12:06:35;1.33;;;0.90;;
14923;SDS011;7554;43.600;1.480;2022-08-26T12:09:07;2.17;;;1.13;;
14923;SDS011;7554;43.600;1.480;2022-08-26T12:11:38;5.22;;;1.30;;
14923;SDS011;7554;43.600;1.480;2022-08-26T12:14:07;2.40;;;1.23;;
14923;SDS011;7554;43.600;1.480;2022-08-26T12:16:41;5.30;;;1.30;;
14923;SDS011;7554;43.600;1.480;2022-08-26T12:19:22;4.18;;;1.13;;
14923;SDS011;7554;43.600;1.480;2022-08-26T12:21:53;2.65;;;1.10;;
14923;SDS011;7554;43.600;1.480;2022-08-26T12:24:26;1.92;;;1.10;;
14923;SDS011;7554;43.600;1.480;2022-08-26T12:27:03;3.30;;;1.05;;
14923;SDS011;7554;43.600;1.480;2022-08-26T12:29:36;2.47;;;1.15;;
14923;SDS011;7554;43.600;1.480;2022-08-26T12:32:07;5.85;;;0.90;;
14923;SDS011;7554;43.600;1.480;2022-08-26T12:34:37;2.15;;;0.82;;
14923;SDS011;7554;43.600;1.480;2022-08-26T12:37:08;2.00;;;0.98;;
14923;SDS011;7554;43.600;1.480;2022-08-26T12:39:37;3.22;;;1.13;;
14923;SDS011;7554;43.600;1.480;2022-08-26T12:42:20;2.65;;;1.05;;
14923;SDS011;7554;43.600;1.480;2022-08-26T12:44:56;3.20;;;1.00;;
14923;SDS011;7554;43.600;1.480;2022-08-26T12:47:27;5.60;;;1.35;;
14923;SDS011;7554;43.600;1.480;2022-08-26T12:49:58;2.60;;;0.95;;
14923;SDS011;7554;43.600;1.480;2022-08-26T12:52:31;2.55;;;1.40;;
14923;SDS011;7554;43.600;1.480;2022-08-26T12:55:01;2.65;;;1.08;;
14923;SDS011;7554;43.600;1.480;2022-08-26T12:57:33;1.85;;;1.20;;
14923;SDS011;7554;43.600;1.480;2022-08-26T13:02:48;1.77;;;0.90;;
14923;SDS011;7554;43.600;1.480;2022-08-26T13:05:18;1.30;;;0.93;;
14923;SDS011;7554;43.600;1.480;2022-08-26T13:10:39;1.23;;;1.00;;
14923;SDS011;7554;43.600;1.480;2022-08-26T13:13:08;1.95;;;1.00;;
14923;SDS011;7554;43.600;1.480;2022-08-26T13:15:36;2.40;;;1.02;;
14923;SDS011;7554;43.600;1.480;2022-08-26T13:18:03;3.83;;;1.10;;
14923;SDS011;7554;43.600;1.480;2022-08-26T13:20:31;3.17;;;1.05;;
14923;SDS011;7554;43.600;1.480;2022-08-26T13:22:59;2.97;;;1.25;;
14923;SDS011;7554;43.600;1.480;2022-08-26T13:25:28;2.83;;;1.02;;
14923;SDS011;7554;43.600;1.480;2022-08-26T13:27:56;1.52;;;0.88;;
14923;SDS011;7554;43.600;1.480;2022-08-26T13:30:23;1.92;;;1.27;;
14923;SDS011;7554;43.600;1.480;2022-08-26T13:32:51;4.22;;;1.13;;
14923;SDS011;7554;43.600;1.480;2022-08-26T13:35:22;2.83;;;1.05;;
14923;SDS011;7554;43.600;1.480;2022-08-26T13:37:49;2.63;;;1.40;;
14923;SDS011;7554;43.600;1.480;2022-08-26T13:40:17;4.47;;;1.30;;
14923;SDS011;7554;43.600;1.480;2022-08-26T13:42:46;1.90;;;1.20;;
14923;SDS011;7554;43.600;1.480;2022-08-26T13:45:13;2.75;;;1.17;;
14923;SDS011;7554;43.600;1.480;2022-08-26T13:47:41;4.43;;;1.30;;
14923;SDS011;7554;43.600;1.480;2022-08-26T13:50:08;5.13;;;1.20;;
14923;SDS011;7554;43.600;1.480;2022-08-26T13:52:36;7.30;;;1.10;;
14923;SDS011;7554;43.600;1.480;2022-08-26T13:55:04;1.40;;;1.00;;
14923;SDS011;7554;43.600;1.480;2022-08-26T13:57:32;5.03;;;1.30;;
14923;SDS011;7554;43.600;1.480;2022-08-26T14:00:01;4.32;;;1.40;;
14923;SDS011;7554;43.600;1.480;2022-08-26T14:02:28;3.70;;;1.67;;
14923;SDS011;7554;43.600;1.480;2022-08-26T14:04:56;2.33;;;1.30;;
14923;SDS011;7554;43.600;1.480;2022-08-26T14:07:24;3.95;;;1.30;;
14923;SDS011;7554;43.600;1.480;2022-08-26T14:09:51;3.30;;;1.33;;
14923;SDS011;7554;43.600;1.480;2022-08-26T14:12:19;3.25;;;1.30;;
14923;SDS011;7554;43.600;1.480;2022-08-26T14:14:46;1.42;;;1.20;;
14923;SDS011;7554;43.600;1.480;2022-08-26T14:17:16;4.35;;;1.38;;
14923;SDS011;7554;43.600;1.480;2022-08-26T14:19:45;2.53;;;1.30;;
14923;SDS011;7554;43.600;1.480;2022-08-26T14:22:15;3.67;;;1.15;;
14923;SDS011;7554;43.600;1.480;2022-08-26T14:24:45;2.83;;;1.65;;
14923;SDS011;7554;43.600;1.480;2022-08-26T14:27:12;2.22;;;1.02;;
14923;SDS011;7554;43.600;1.480;2022-08-26T14:29:40;3.28;;;1.58;;
14923;SDS011;7554;43.600;1.480;2022-08-26T14:32:09;3.67;;;1.50;;
14923;SDS011;7554;43.600;1.480;2022-08-26T14:34:42;2.38;;;1.00;;
14923;SDS011;7554;43.600;1.480;2022-08-26T14:37:10;5.85;;;1.42;;
14923;SDS011;7554;43.600;1.480;2022-08-26T14:39:37;3.63;;;1.27;;
14923;SDS011;7554;43.600;1.480;2022-08-26T14:42:04;4.68;;;1.40;;
14923;SDS011;7554;43.600;1.480;2022-08-26T14:44:34;2.78;;;1.30;;
14923;SDS011;7554;43.600;1.480;2022-08-26T14:47:03;1.45;;;1.17;;
14923;SDS011;7554;43.600;1.480;2022-08-26T14:49:31;2.63;;;1.15;;
14923;SDS011;7554;43.600;1.480;2022-08-26T14:52:00;2.70;;;1.50;;
14923;SDS011;7554;43.600;1.480;2022-08-26T14:54:28;3.95;;;1.10;;
14923;SDS011;7554;43.600;1.480;2022-08-26T14:56:55;2.72;;;1.45;;
14923;SDS011;7554;43.600;1.480;2022-08-26T14:59:26;1.85;;;1.05;;
14923;SDS011;7554;43.600;1.480;2022-08-26T15:01:54;2.85;;;1.20;;
14923;SDS011;7554;43.600;1.480;2022-08-26T15:04:23;2.55;;;1.25;;
14923;SDS011;7554;43.600;1.480;2022-08-26T15:06:52;1.90;;;0.93;;
14923;SDS011;7554;43.600;1.480;2022-08-26T15:09:22;2.13;;;1.00;;
14923;SDS011;7554;43.600;1.480;2022-08-26T15:11:50;2.47;;;1.00;;
14923;SDS011;7554;43.600;1.480;2022-08-26T15:14:18;3.90;;;1.58;;
14923;SDS011;7554;43.600;1.480;2022-08-26T15:16:46;2.78;;;1.30;;
14923;SDS011;7554;43.600;1.480;2022-08-26T15:19:15;2.83;;;1.40;;
14923;SDS011;7554;43.600;1.480;2022-08-26T15:21:43;3.53;;;1.33;;
14923;SDS011;7554;43.600;1.480;2022-08-26T15:24:11;1.95;;;1.23;;
14923;SDS011;7554;43.600;1.480;2022-08-26T15:26:41;1.63;;;1.17;;
14923;SDS011;7554;43.600;1.480;2022-08-26T15:29:09;2.97;;;1.60;;
14923;SDS011;7554;43.600;1.480;2022-08-26T15:31:36;3.35;;;1.30;;
14923;SDS011;7554;43.600;1.480;2022-08-26T15:34:05;1.92;;;1.23;;
14923;SDS011;7554;43.600;1.480;2022-08-26T15:36:33;3.05;;;1.40;;